首页
METAR-TAF:

METAR-TAF

机场 :

摩根敦市立機場

摩根敦, 西維吉尼亞州, 美国

纬度: 39-38-58N, 经度: 079-55-16W, 海拔: 380米

当前天气观测

该预报发布于1小时和18分钟前的15:53 UTC
风速4节,风向东转东南
温度 4°C
湿度 93%
气压 1021 hPa
能見度: 11.3公里
阴天层高于2600英尺

METAR: KMGW 131553Z 11004KT 7SM OVC026 04/03 A3014 RMK AO2 RAE40 SLP214 P0001 T00440028

时间: 12:11 (17:11 UTC)

预报

该预报发布于5小时和48分钟前的11:23 UTC
预报有效从13日的 12点(UTC)到 14日的 12点(UTC)
风速5节,风向南转南东
能見度: 10公里
阴天层高于2500英尺
附近有阵雨
从 14日的 0100点(UTC)
风速4节,风向
能見度: 8.0公里
阴天层高于1500英尺
小雨, 轻雾
从 14日的 0400点(UTC)
风速4节,风向
能見度: 1.6公里
阴天层高于800英尺
小雨, 轻雾

TAF: KMGW 131123Z 1312/1412 16005KT P6SM VCSH OVC025 FM140100 10004KT 5SM -RA BR OVC015 FM140400 10004KT 1SM -RA BR OVC008

超过4000个机场的气象观测和天气预报(METAR&TAF报告)。

可查询的气象台以黄色和红色小点在地图上表示。

将鼠标移到小点上方,可查看气象台名称。

然后点击查看天气观测和预报。

如需切换地图:点击带黑十字的绿色按钮放大地图;点击带横线的绿色按钮缩小地图;或者点击绿色箭头查看邻近地区的地图。


METAR-TAF: